Time;durP1;ratioP1;P1;durP2;ratioP2;P2;SDS_P1;SDS_P2;PMS_P1;PMS_P2;Temp;Humidity;BMP_temperature;BMP_pressure;BME280_temperature;BME280_humidity;BME280_pressure;Samples;Min_cycle;Max_cycle;Signal;HPM_P1;HPM_P2
2021/12/17 00:01:06;;;;;;;;;;;;;;;1.49;96.80;98477.16;4995958;28;19999;-74
2021/12/17 00:03:41;;;;;;;;;;;;;;;1.50;96.72;98479.66;4996309;28;20292;-75
2021/12/17 00:08:38;;;;;;;;;;;;;;;1.49;96.78;98480.59;4996140;28;19960;-74
2021/12/17 00:11:05;;;;;;;;;;;;;;;1.49;96.75;98478.00;4979017;28;19972;-74
2021/12/17 00:13:31;;;;;;;;;;;;;;;1.51;97.10;98485.63;4995785;28;19959;-75
2021/12/17 00:15:58;;;;;;;;;;;;;;;1.49;97.21;98477.16;4995730;28;20451;-75
2021/12/17 00:18:36;;;;;;;;;;;;;;;1.46;97.37;98470.47;4995536;28;19983;-76
2021/12/17 00:48:41;;;;;;;;;;;;;;;1.49;96.47;98484.91;4995440;28;19973;-74
2021/12/17 00:53:58;;;;;;;;;;;;;;;1.54;96.94;98473.31;4995198;28;19965;-75
2021/12/17 00:56:24;;;;;;;;;;;;;;;1.54;96.92;98481.06;4995023;28;19965;-74
2021/12/17 00:58:50;;;;;;;;;;;;;;;1.57;97.37;98477.44;4995070;28;20303;-74
2021/12/17 01:01:19;;;;;;;;;;;;;;;1.61;98.04;98473.69;4994577;28;19965;-74
2021/12/17 01:03:45;;;;;;;;;;;;;;;1.67;98.31;98472.44;4993578;28;19950;-75
2021/12/17 01:06:11;;;;;;;;;;;;;;;1.70;98.67;98475.63;4994669;28;19955;-74
2021/12/17 01:08:37;;;;;;;;;;;;;;;1.78;98.67;98478.47;4994854;28;19986;-74
2021/12/17 01:11:04;;;;;;;;;;;;;;;1.84;98.75;98474.59;4977410;28;19993;-74
2021/12/17 01:13:30;;;;;;;;;;;;;;;1.88;98.29;98465.69;4994893;28;19968;-74
2021/12/17 01:15:57;;;;;;;;;;;;;;;1.92;98.34;98464.53;4994533;28;19965;-75
2021/12/17 01:18:34;;;;;;;;;;;;;;;1.95;98.13;98461.72;4994456;28;19988;-74
2021/12/17 01:43:03;;;;;;;;;;;;;;;2.26;99.41;98443.06;4994443;28;19953;-74
2021/12/17 01:45:35;;;;;;;;;;;;;;;2.30;99.71;98439.31;4993984;28;20394;-74
2021/12/17 01:48:02;;;;;;;;;;;;;;;2.33;100.00;98434.72;4994462;28;19959;-74
2021/12/17 01:56:18;;;;;;;;;;;;;;;2.47;100.00;98444.00;4994414;28;20036;-75
2021/12/17 02:01:29;;;;;;;;;;;;;;;2.55;100.00;98441.66;4993986;28;19951;-75
2021/12/17 02:03:55;;;;;;;;;;;;;;;2.59;100.00;98450.03;4994073;28;19986;-74
2021/12/17 02:06:23;;;;;;;;;;;;;;;2.62;100.00;98449.78;4993891;28;19956;-75
2021/12/17 02:08:51;;;;;;;;;;;;;;;2.65;99.38;98454.75;4993844;28;20396;-76
2021/12/17 02:11:57;;;;;;;;;;;;;;;2.65;99.57;98449.56;4995635;28;19962;-75
2021/12/17 02:19:46;;;;;;;;;;;;;;;2.73;99.77;98457.56;4980188;28;19993;-74
2021/12/17 02:30:51;;;;;;;;;;;;;;;2.85;99.48;98433.28;4997577;28;19955;-74
2021/12/17 02:33:18;;;;;;;;;;;;;;;2.87;99.75;98427.97;4984680;28;19967;-74
2021/12/17 02:35:45;;;;;;;;;;;;;;;2.89;99.71;98430.44;4997455;28;20315;-74
2021/12/17 02:38:13;;;;;;;;;;;;;;;2.91;99.42;98424.19;4996456;28;19972;-74
2021/12/17 02:46:09;;;;;;;;;;;;;;;2.98;98.98;98425.38;4997510;28;19966;-74
2021/12/17 02:48:36;;;;;;;;;;;;;;;2.97;98.08;98413.34;4997565;28;19996;-74
2021/12/17 02:51:02;;;;;;;;;;;;;;;2.97;98.12;98409.94;4997095;28;19964;-74
2021/12/17 02:53:29;;;;;;;;;;;;;;;2.95;97.75;98396.28;4997109;28;19972;-74
2021/12/17 02:55:56;;;;;;;;;;;;;;;2.92;98.13;98394.75;4997206;28;20434;-74
2021/12/17 02:58:23;;;;;;;;;;;;;;;2.91;97.92;98398.28;4996880;28;19956;-74
2021/12/17 03:00:49;;;;;;;;;;;;;;;2.90;98.12;98398.41;4996885;28;19973;-74
2021/12/17 03:03:16;;;;;;;;;;;;;;;2.91;97.98;98387.09;4996841;28;20430;-75
2021/12/17 03:05:42;;;;;;;;;;;;;;;2.93;98.36;98390.41;4996284;28;20355;-74
2021/12/17 03:08:14;;;;;;;;;;;;;;;2.95;98.42;98389.31;4996926;28;19962;-74
2021/12/17 03:10:40;;;;;;;;;;;;;;;2.97;98.24;98384.03;4996752;28;20419;-74
2021/12/17 03:13:07;;;;;;;;;;;;;;;2.98;98.22;98383.91;4996789;28;19969;-75
2021/12/17 03:15:56;;;;;;;;;;;;;;;3.02;98.36;98381.88;4996795;28;19957;-75
2021/12/17 03:23:44;;;;;;;;;;;;;;;3.11;98.30;98385.50;4996649;28;20023;-75
2021/12/17 03:26:15;;;;;;;;;;;;;;;3.12;98.20;98379.38;4996783;28;19983;-76
2021/12/17 03:28:42;;;;;;;;;;;;;;;3.11;98.00;98382.91;4996832;28;20324;-75
2021/12/17 03:31:09;;;;;;;;;;;;;;;3.09;97.86;98385.66;4996359;28;19953;-75
2021/12/17 03:33:36;;;;;;;;;;;;;;;3.07;98.14;98379.75;4996423;28;19979;-74
2021/12/17 03:36:02;;;;;;;;;;;;;;;3.08;98.11;98380.56;4978752;28;19958;-75
2021/12/17 03:38:28;;;;;;;;;;;;;;;3.12;98.34;98389.75;4996594;28;19961;-75
2021/12/17 03:41:08;;;;;;;;;;;;;;;3.13;98.48;98381.00;4996095;28;19956;-75
2021/12/17 03:43:34;;;;;;;;;;;;;;;3.16;98.48;98383.38;4995897;28;19965;-75
2021/12/17 03:46:00;;;;;;;;;;;;;;;3.17;98.50;98375.50;4996042;28;19966;-75
2021/12/17 03:48:30;;;;;;;;;;;;;;;3.19;98.56;98381.38;4996590;28;19958;-75
2021/12/17 03:50:56;;;;;;;;;;;;;;;3.18;98.51;98379.72;4996113;28;20338;-74
2021/12/17 03:53:22;;;;;;;;;;;;;;;3.20;98.18;98380.41;4995839;28;19984;-74
2021/12/17 03:55:49;;;;;;;;;;;;;;;3.22;98.04;98380.28;4995936;28;19956;-74
2021/12/17 03:58:17;;;;;;;;;;;;;;;3.23;97.81;98381.94;4995868;28;20407;-75
2021/12/17 04:00:43;;;;;;;;;;;;;;;3.24;97.88;98383.59;4996047;28;19968;-74
2021/12/17 04:03:08;;;;;;;;;;;;;;;3.22;97.96;98383.69;4995781;28;19962;-74
2021/12/17 04:05:34;;;;;;;;;;;;;;;3.19;98.00;98390.91;4995975;28;19960;-74
2021/12/17 04:08:00;;;;;;;;;;;;;;;3.19;98.22;98393.50;4995714;28;20005;-74
2021/12/17 04:10:29;;;;;;;;;;;;;;;3.19;98.29;98390.91;4996032;28;20049;-74
2021/12/17 04:15:33;;;;;;;;;;;;;;;3.21;98.23;98379.47;4995491;28;19953;-74
2021/12/17 04:17:59;;;;;;;;;;;;;;;3.23;98.02;98387.97;4995986;28;19978;-74
2021/12/17 04:20:25;;;;;;;;;;;;;;;3.25;98.11;98390.41;4995994;28;19972;-74
2021/12/17 04:22:52;;;;;;;;;;;;;;;3.27;98.02;98393.69;4994679;28;19962;-74
2021/12/17 04:25:18;;;;;;;;;;;;;;;3.28;97.92;98397.13;4995406;28;20311;-74
2021/12/17 04:27:43;;;;;;;;;;;;;;;3.30;97.91;98396.06;4993932;28;20012;-74
2021/12/17 04:30:10;;;;;;;;;;;;;;;3.32;97.85;98401.94;4995345;28;19990;-74
2021/12/17 04:32:36;;;;;;;;;;;;;;;3.33;98.12;98393.22;4995251;28;19985;-73
2021/12/17 04:35:03;;;;;;;;;;;;;;;3.35;97.77;98399.09;4994267;28;20376;-75
2021/12/17 04:37:28;;;;;;;;;;;;;;;3.36;97.65;98397.31;4995218;28;20050;-74
2021/12/17 04:39:54;;;;;;;;;;;;;;;3.36;97.78;98397.31;4977706;28;20000;-74
2021/12/17 04:42:31;;;;;;;;;;;;;;;3.35;97.44;98396.50;4995195;28;19959;-77
2021/12/17 04:44:58;;;;;;;;;;;;;;;3.36;98.02;98398.16;4963019;28;20417;-77
2021/12/17 04:58:08;;;;;;;;;;;;;;;3.39;98.42;98402.28;5111830;28;19960;-77
2021/12/17 05:00:34;;;;;;;;;;;;;;;3.40;97.96;98409.94;5092967;28;19974;-77
2021/12/17 05:03:01;;;;;;;;;;;;;;;3.38;98.22;98404.06;5111386;28;19952;-77
2021/12/17 05:05:30;;;;;;;;;;;;;;;3.38;98.45;98398.03;5110923;28;19973;-77
2021/12/17 05:08:03;;;;;;;;;;;;;;;3.37;97.81;98397.19;5111454;28;19955;-75
2021/12/17 05:18:40;;;;;;;;;;;;;;;3.48;98.52;98370.38;5111295;28;19968;-75
2021/12/17 05:21:08;;;;;;;;;;;;;;;3.50;98.23;98368.50;5110985;28;19994;-75
2021/12/17 05:23:39;;;;;;;;;;;;;;;3.54;98.02;98364.69;5111176;28;19975;-76
2021/12/17 05:26:13;;;;;;;;;;;;;;;3.56;98.37;98370.59;5110683;28;19966;-76
2021/12/17 05:28:39;;;;;;;;;;;;;;;3.59;98.04;98370.34;5110812;28;19959;-76
2021/12/17 05:31:05;;;;;;;;;;;;;;;3.62;97.92;98369.28;5110598;28;20333;-77
2021/12/17 05:33:31;;;;;;;;;;;;;;;3.64;98.19;98373.38;5110765;28;19978;-76
2021/12/17 05:35:57;;;;;;;;;;;;;;;3.66;97.91;98371.47;5110787;28;19957;-77
2021/12/17 05:38:24;;;;;;;;;;;;;;;3.69;97.94;98377.38;5110374;28;20058;-80
2021/12/17 05:40:50;;;;;;;;;;;;;;;3.67;97.74;98374.88;5110578;28;20034;-76
2021/12/17 05:43:16;;;;;;;;;;;;;;;3.69;97.81;98367.00;5110223;28;20362;-76
2021/12/17 05:48:25;;;;;;;;;;;;;;;3.65;97.20;98371.59;5110505;28;20406;-76
2021/12/17 05:50:55;;;;;;;;;;;;;;;3.66;97.34;98365.47;5110339;28;19961;-76
2021/12/17 05:53:22;;;;;;;;;;;;;;;3.66;97.18;98373.25;5108776;28;19982;-76
2021/12/17 05:55:48;;;;;;;;;;;;;;;3.69;97.33;98362.59;5110217;28;20343;-76
2021/12/17 05:58:14;;;;;;;;;;;;;;;3.71;97.66;98368.50;5110022;28;20064;-77
2021/12/17 06:00:41;;;;;;;;;;;;;;;3.73;97.50;98374.38;5092263;28;20026;-77
2021/12/17 06:03:07;;;;;;;;;;;;;;;3.76;97.60;98370.72;5110067;28;20325;-77
2021/12/17 06:05:33;;;;;;;;;;;;;;;3.77;97.30;98365.41;5103150;28;19957;-76
2021/12/17 06:07:59;;;;;;;;;;;;;;;3.77;97.14;98364.59;5077994;28;20604;-77
2021/12/17 06:10:25;;;;;;;;;;;;;;;3.77;96.78;98355.00;5096268;28;19984;-76
2021/12/17 06:12:51;;;;;;;;;;;;;;;3.77;96.67;98357.63;5096262;28;19948;-76
2021/12/17 06:15:18;;;;;;;;;;;;;;;3.79;96.77;98363.50;5096217;28;19972;-75
2021/12/17 06:17:44;;;;;;;;;;;;;;;3.81;97.04;98360.78;5096055;28;19978;-75
2021/12/17 06:20:11;;;;;;;;;;;;;;;3.83;97.05;98364.91;5095838;28;19970;-77
2021/12/17 06:22:37;;;;;;;;;;;;;;;3.88;97.12;98366.28;5077836;28;19953;-76
2021/12/17 06:25:04;;;;;;;;;;;;;;;3.89;96.88;98360.16;5095765;28;19962;-76
2021/12/17 06:27:30;;;;;;;;;;;;;;;3.88;96.72;98355.91;5096041;28;19957;-78
2021/12/17 06:29:57;;;;;;;;;;;;;;;3.90;96.22;98356.59;5095753;28;19951;-77
2021/12/17 06:32:24;;;;;;;;;;;;;;;3.87;96.04;98352.50;5095990;28;19958;-77
2021/12/17 06:34:50;;;;;;;;;;;;;;;3.86;95.84;98358.63;5095761;28;19964;-75
2021/12/17 06:37:16;;;;;;;;;;;;;;;3.84;95.88;98343.19;5095854;28;19955;-75
2021/12/17 06:39:43;;;;;;;;;;;;;;;3.86;96.33;98346.47;5096093;28;19973;-75
2021/12/17 06:42:09;;;;;;;;;;;;;;;3.86;96.15;98349.06;5095756;28;19949;-75
2021/12/17 06:44:35;;;;;;;;;;;;;;;3.85;96.15;98352.59;5096004;28;19961;-75
2021/12/17 06:47:09;;;;;;;;;;;;;;;3.84;96.25;98350.13;5095851;28;20405;-75
2021/12/17 07:10:46;;;;;;;;;;;;;;;3.66;94.33;98373.25;5095182;28;19953;-76
2021/12/17 07:31:34;;;;;;;;;;;;;;;4.10;94.32;98397.28;5012187;28;19961;-77
2021/12/17 07:40:04;;;;;;;;;;;;;;;3.92;91.89;98417.00;5094772;28;19946;-75
2021/12/17 07:42:31;;;;;;;;;;;;;;;3.89;91.53;98427.66;5094672;28;19960;-75
2021/12/17 07:44:57;;;;;;;;;;;;;;;3.83;91.72;98422.00;5094532;28;20406;-75
2021/12/17 07:47:23;;;;;;;;;;;;;;;3.83;92.07;98422.00;5076462;28;20004;-75
2021/12/17 07:49:49;;;;;;;;;;;;;;;3.83;91.71;98419.41;5094295;28;20419;-75
2021/12/17 07:52:15;;;;;;;;;;;;;;;3.83;91.65;98429.78;5094489;28;19965;-75
2021/12/17 07:54:41;;;;;;;;;;;;;;;3.85;92.35;98422.69;5093951;28;20097;-76
2021/12/17 07:57:07;;;;;;;;;;;;;;;3.90;92.38;98426.69;5094776;28;19965;-75
2021/12/17 07:59:33;;;;;;;;;;;;;;;3.92;92.37;98430.78;5094100;28;19967;-75
2021/12/17 08:01:59;;;;;;;;;;;;;;;3.94;92.21;98425.47;5094175;28;20007;-76
2021/12/17 08:04:25;;;;;;;;;;;;;;;3.97;92.56;98428.66;5094122;28;20387;-75
2021/12/17 08:06:51;;;;;;;;;;;;;;;4.01;92.41;98431.78;5094187;28;19989;-75
2021/12/17 08:09:19;;;;;;;;;;;;;;;4.04;91.98;98428.97;5094263;28;20308;-75
2021/12/17 08:11:45;;;;;;;;;;;;;;;4.08;92.32;98430.34;5094502;28;19951;-75
2021/12/17 08:14:15;;;;;;;;;;;;;;;4.11;91.77;98430.09;5093842;28;19980;-76
2021/12/17 08:16:54;;;;;;;;;;;;;;;4.13;91.44;98432.56;5094112;28;19949;-75
2021/12/17 08:24:56;;;;;;;;;;;;;;;4.35;91.75;98429.00;5093995;28;19959;-75
2021/12/17 08:27:27;;;;;;;;;;;;;;;4.51;91.67;98434.53;5093939;28;19964;-75
2021/12/17 08:30:19;;;;;;;;;;;;;;;4.59;90.48;98426.91;5093574;28;20311;-75
2021/12/17 08:32:40;;;;;;;;;;;;;;;4.60;90.20;98433.75;5093392;28;19959;-75
2021/12/17 08:35:06;;;;;;;;;;;;;;;4.65;89.92;98426.38;5075507;28;19967;-75
2021/12/17 08:37:33;;;;;;;;;;;;;;;4.70;89.72;98433.78;5093722;28;19960;-75
2021/12/17 08:39:59;;;;;;;;;;;;;;;4.72;88.73;98428.47;5075309;28;19959;-75
2021/12/17 08:42:25;;;;;;;;;;;;;;;4.72;88.20;98437.06;5093915;28;19960;-76
2021/12/17 08:44:51;;;;;;;;;;;;;;;4.64;85.89;98439.50;5078933;28;19964;-75
2021/12/17 08:47:17;;;;;;;;;;;;;;;4.55;86.63;98437.69;5092330;28;19965;-75
2021/12/17 08:49:44;;;;;;;;;;;;;;;4.47;87.76;98431.38;5093742;28;19954;-75
2021/12/17 08:52:10;;;;;;;;;;;;;;;4.46;89.09;98441.91;5093786;28;19954;-75
2021/12/17 08:54:37;;;;;;;;;;;;;;;4.44;86.77;98443.81;5093598;28;19987;-75
2021/12/17 08:57:03;;;;;;;;;;;;;;;4.36;87.96;98444.44;5092555;28;19962;-75
2021/12/17 08:59:29;;;;;;;;;;;;;;;4.34;88.72;98450.72;5093340;28;19957;-75
2021/12/17 09:01:55;;;;;;;;;;;;;;;4.28;88.08;98459.84;5075538;28;20000;-77
2021/12/17 09:04:22;;;;;;;;;;;;;;;4.30;89.06;98462.31;5093406;28;19956;-75
2021/12/17 09:06:49;;;;;;;;;;;;;;;4.32;89.21;98457.81;5093362;28;19970;-76
2021/12/17 09:09:19;;;;;;;;;;;;;;;4.37;88.23;98461.69;5093183;28;20304;-76
2021/12/17 09:11:45;;;;;;;;;;;;;;;4.37;87.04;98451.28;5075809;28;19958;-75
2021/12/17 09:14:12;;;;;;;;;;;;;;;4.41;89.01;98460.47;5093380;28;19972;-75
2021/12/17 09:16:39;;;;;;;;;;;;;;;4.44;88.05;98454.19;5092483;28;19966;-75
2021/12/17 09:19:07;;;;;;;;;;;;;;;4.41;87.39;98462.22;5093385;28;19959;-75
2021/12/17 09:21:33;;;;;;;;;;;;;;;4.43;88.09;98460.31;5093241;28;19964;-75
2021/12/17 09:23:59;;;;;;;;;;;;;;;4.48;88.07;98460.78;5092465;28;19953;-75
2021/12/17 09:26:27;;;;;;;;;;;;;;;4.50;86.32;98465.84;5093217;28;20054;-75
2021/12/17 09:28:53;;;;;;;;;;;;;;;4.51;86.25;98460.50;5093127;28;19949;-75
2021/12/17 09:31:19;;;;;;;;;;;;;;;4.73;87.35;98463.91;5093302;28;19985;-75
2021/12/17 09:33:47;;;;;;;;;;;;;;;5.22;87.14;98463.06;5093098;28;20435;-75
2021/12/17 09:36:15;;;;;;;;;;;;;;;5.49;84.32;98457.22;5092905;28;19979;-75
2021/12/17 09:38:41;;;;;;;;;;;;;;;5.79;84.91;98455.44;5092422;28;20406;-76
2021/12/17 09:41:07;;;;;;;;;;;;;;;6.03;84.12;98455.06;5095208;28;19962;-76
2021/12/17 09:43:36;;;;;;;;;;;;;;;6.22;83.53;98458.59;5096752;28;19966;-76
2021/12/17 09:46:04;;;;;;;;;;;;;;;6.33;82.09;98444.59;5096968;28;20440;-76
2021/12/17 09:48:32;;;;;;;;;;;;;;;6.44;81.70;98444.41;5078712;28;19965;-76
2021/12/17 09:50:58;;;;;;;;;;;;;;;6.53;82.40;98448.78;5096610;28;19954;-76
2021/12/17 09:53:24;;;;;;;;;;;;;;;6.55;80.84;98449.47;5078433;28;19991;-76
2021/12/17 09:55:51;;;;;;;;;;;;;;;6.74;81.16;98443.34;5096626;28;19997;-76
2021/12/17 09:58:17;;;;;;;;;;;;;;;6.99;80.58;98435.78;5096871;28;19968;-76
2021/12/17 10:00:43;;;;;;;;;;;;;;;7.15;79.55;98437.78;5096505;28;20458;-76
2021/12/17 10:03:09;;;;;;;;;;;;;;;7.30;79.88;98436.28;5096458;28;20427;-76
2021/12/17 10:05:36;;;;;;;;;;;;;;;7.42;79.84;98429.06;5078511;28;19961;-76
2021/12/17 10:08:04;;;;;;;;;;;;;;;7.55;80.09;98420.88;5096367;28;19959;-76
2021/12/17 10:10:32;;;;;;;;;;;;;;;7.67;78.04;98423.09;5096264;28;19955;-76
2021/12/17 10:13:06;;;;;;;;;;;;;;;7.80;77.43;98417.47;5096387;28;19957;-76
2021/12/17 10:15:34;;;;;;;;;;;;;;;7.95;78.63;98424.78;5096043;28;19993;-76
2021/12/17 10:18:03;;;;;;;;;;;;;;;7.95;75.97;98419.56;5096277;28;20417;-76
2021/12/17 10:20:30;;;;;;;;;;;;;;;7.97;76.45;98415.00;5096278;28;19959;-75
2021/12/17 10:22:58;;;;;;;;;;;;;;;7.97;75.23;98401.94;5096133;28;19960;-76
2021/12/17 10:25:26;;;;;;;;;;;;;;;8.05;76.71;98405.41;5096067;28;20330;-76
2021/12/17 10:27:55;;;;;;;;;;;;;;;8.11;75.68;98398.75;5096102;28;19958;-76
2021/12/17 10:30:21;;;;;;;;;;;;;;;8.20;74.21;98399.63;5096051;28;19958;-76
2021/12/17 10:32:58;;;;;;;;;;;;;;;8.28;75.43;98389.22;5095937;28;19964;-76
2021/12/17 10:35:30;;;;;;;;;;;;;;;8.32;75.84;98386.13;5096032;28;19970;-75
2021/12/17 10:38:00;;;;;;;;;;;;;;;8.34;74.05;98368.50;5095956;28;20401;-76
2021/12/17 10:40:29;;;;;;;;;;;;;;;8.34;74.76;98376.34;5095746;28;19960;-75
2021/12/17 10:43:05;;;;;;;;;;;;;;;8.30;75.13;98375.00;5095895;28;19952;-76
2021/12/17 10:45:35;;;;;;;;;;;;;;;8.30;75.42;98371.59;5084576;28;19952;-77
2021/12/17 10:48:20;;;;;;;;;;;;;;;8.35;76.42;98371.94;5083597;28;19964;-76
2021/12/17 10:50:50;;;;;;;;;;;;;;;8.30;75.72;98371.59;5085930;28;19952;-76
2021/12/17 10:53:21;;;;;;;;;;;;;;;8.27;72.73;98366.66;5095191;28;21523;-76
2021/12/17 10:55:47;;;;;;;;;;;;;;;8.25;73.32;98374.69;5095668;28;19980;-76
2021/12/17 10:58:15;;;;;;;;;;;;;;;8.30;74.58;98377.63;5095690;28;19966;-75
2021/12/17 11:00:45;;;;;;;;;;;;;;;8.25;73.81;98381.69;5095756;28;19951;-76
2021/12/17 11:03:11;;;;;;;;;;;;;;;8.14;72.15;98373.13;5095536;28;20426;-76
2021/12/17 11:05:37;;;;;;;;;;;;;;;8.01;73.33;98383.19;5094334;28;20050;-76
2021/12/17 11:08:17;;;;;;;;;;;;;;;7.88;71.17;98370.53;5077671;28;19972;-76
2021/12/17 11:10:47;;;;;;;;;;;;;;;7.85;74.13;98383.91;5095122;28;19965;-75
2021/12/17 11:13:16;;;;;;;;;;;;;;;7.88;74.75;98393.22;5095478;28;19958;-75
2021/12/17 11:15:42;;;;;;;;;;;;;;;7.86;73.74;98389.94;5095024;28;19970;-76
2021/12/17 11:18:08;;;;;;;;;;;;;;;7.75;72.45;98382.34;5095288;28;19958;-76
2021/12/17 11:20:38;;;;;;;;;;;;;;;7.75;73.82;98391.00;5077319;28;19961;-75
2021/12/17 11:23:07;;;;;;;;;;;;;;;7.67;72.54;98388.34;5094963;28;19953;-76
2021/12/17 11:25:35;;;;;;;;;;;;;;;7.64;74.53;98399.06;5095162;28;19977;-76
2021/12/17 11:28:03;;;;;;;;;;;;;;;7.63;73.10;98392.22;5094749;28;19968;-76
2021/12/17 11:30:30;;;;;;;;;;;;;;;7.59;74.58;98386.47;5094894;28;19961;-75
2021/12/17 11:33:01;;;;;;;;;;;;;;;7.67;74.83;98380.50;5094607;28;19963;-75
2021/12/17 11:35:27;;;;;;;;;;;;;;;7.77;72.67;98385.59;5095318;28;20467;-76
2021/12/17 11:37:56;;;;;;;;;;;;;;;7.79;74.80;98389.72;5094940;28;19958;-76
2021/12/17 11:40:25;;;;;;;;;;;;;;;7.77;73.45;98381.22;5076528;28;19955;-76
2021/12/17 11:43:01;;;;;;;;;;;;;;;7.74;74.02;98386.75;5094585;28;19950;-76
2021/12/17 11:45:29;;;;;;;;;;;;;;;7.72;73.63;98386.06;5094540;28;19962;-76
2021/12/17 11:48:10;;;;;;;;;;;;;;;7.67;71.83;98381.31;5094574;28;19959;-77
2021/12/17 11:50:36;;;;;;;;;;;;;;;7.58;73.65;98376.16;5094419;28;20315;-76
2021/12/17 11:53:18;;;;;;;;;;;;;;;7.55;74.17;98374.69;5094098;28;19958;-77
2021/12/17 11:55:45;;;;;;;;;;;;;;;7.59;74.59;98372.59;5094291;28;19983;-76
2021/12/17 11:58:15;;;;;;;;;;;;;;;7.58;74.77;98369.19;5094267;28;19968;-76
2021/12/17 12:00:41;;;;;;;;;;;;;;;7.63;74.45;98360.88;5084640;28;19956;-77
2021/12/17 12:03:13;;;;;;;;;;;;;;;7.59;74.17;98347.28;5075427;28;20431;-76
2021/12/17 12:05:43;;;;;;;;;;;;;;;7.57;75.30;98351.03;5094173;28;19957;-76
2021/12/17 12:08:30;;;;;;;;;;;;;;;7.46;73.78;98352.91;5094221;28;20027;-76
2021/12/17 12:11:02;;;;;;;;;;;;;;;7.39;76.09;98369.31;5094289;28;19969;-76
2021/12/17 12:13:39;;;;;;;;;;;;;;;7.34;75.42;98361.94;5094258;28;19960;-77
2021/12/17 12:16:07;;;;;;;;;;;;;;;7.32;75.47;98366.50;5094073;28;19969;-76
2021/12/17 12:18:46;;;;;;;;;;;;;;;7.31;74.96;98368.28;5093949;28;20356;-76
2021/12/17 12:21:16;;;;;;;;;;;;;;;7.31;75.47;98359.66;5093987;28;19966;-76
2021/12/17 12:23:43;;;;;;;;;;;;;;;7.27;76.76;98366.13;5094083;28;19968;-75
2021/12/17 12:26:12;;;;;;;;;;;;;;;7.25;75.01;98368.88;5093943;28;19961;-76
2021/12/17 12:28:53;;;;;;;;;;;;;;;7.27;75.64;98359.13;5093704;28;19958;-76
2021/12/17 12:31:25;;;;;;;;;;;;;;;7.27;74.74;98347.88;5093626;28;19957;-76
2021/12/17 12:34:04;;;;;;;;;;;;;;;7.31;75.02;98341.38;5093634;28;20463;-76
2021/12/17 12:36:49;;;;;;;;;;;;;;;7.39;75.15;98341.44;5093951;28;20429;-77
2021/12/17 12:39:20;;;;;;;;;;;;;;;7.37;75.67;98356.44;5081292;28;19958;-76
2021/12/17 12:41:48;;;;;;;;;;;;;;;7.32;76.17;98371.72;5093609;28;20426;-76
2021/12/17 12:44:14;;;;;;;;;;;;;;;7.26;76.10;98360.06;5092837;28;19962;-76
2021/12/17 12:46:56;;;;;;;;;;;;;;;7.21;75.05;98358.91;5093745;28;19963;-76
2021/12/17 12:50:02;;;;;;;;;;;;;;;7.13;74.69;98351.00;5093856;28;20319;-76
2021/12/17 12:52:30;;;;;;;;;;;;;;;7.06;76.33;98362.03;5011338;28;20062;-77
2021/12/17 12:54:59;;;;;;;;;;;;;;;7.01;76.03;98369.44;5011578;28;19984;-76
2021/12/17 12:57:31;;;;;;;;;;;;;;;6.99;75.23;98360.13;5042423;28;20041;-77
2021/12/17 12:59:58;;;;;;;;;;;;;;;7.02;75.87;98365.06;5073364;28;19955;-76
2021/12/17 13:02:27;;;;;;;;;;;;;;;7.05;77.13;98362.16;5073108;28;20297;-77
2021/12/17 13:04:54;;;;;;;;;;;;;;;7.05;75.70;98362.16;5073100;28;19955;-77
2021/12/17 13:07:38;;;;;;;;;;;;;;;7.08;76.29;98351.44;5073212;28;19965;-76
2021/12/17 13:10:09;;;;;;;;;;;;;;;7.03;75.49;98357.06;5073525;28;19954;-76
2021/12/17 13:12:36;;;;;;;;;;;;;;;7.02;73.85;98349.44;5073121;28;19953;-76
2021/12/17 13:23:19;;;;;;;;;;;;;;;6.95;75.18;98349.19;5076877;28;19961;-76
2021/12/17 13:25:45;;;;;;;;;;;;;;;6.92;74.80;98354.69;5076118;28;19965;-76
2021/12/17 13:28:12;;;;;;;;;;;;;;;6.94;75.41;98363.19;5076873;28;19972;-76
2021/12/17 13:30:38;;;;;;;;;;;;;;;6.97;74.67;98362.06;5076922;28;19966;-76
2021/12/17 13:33:04;;;;;;;;;;;;;;;6.94;75.02;98360.59;5076808;28;19958;-76
2021/12/17 13:35:33;;;;;;;;;;;;;;;6.93;74.95;98353.75;5076616;28;20358;-77
2021/12/17 13:38:01;;;;;;;;;;;;;;;6.93;74.42;98360.72;5076839;28;19958;-76
2021/12/17 13:40:28;;;;;;;;;;;;;;;6.91;74.69;98363.50;5076763;28;19955;-76
2021/12/17 13:42:55;;;;;;;;;;;;;;;6.90;75.28;98364.44;5076752;28;19964;-76
2021/12/17 13:45:22;;;;;;;;;;;;;;;6.88;74.44;98364.59;5058863;28;19955;-77
2021/12/17 13:47:50;;;;;;;;;;;;;;;6.90;74.98;98374.88;5076657;28;19965;-77
2021/12/17 13:50:18;;;;;;;;;;;;;;;6.88;73.68;98371.59;5076684;28;19958;-76
2021/12/17 13:52:44;;;;;;;;;;;;;;;6.81;73.81;98368.75;5078352;28;19962;-76
2021/12/17 13:55:12;;;;;;;;;;;;;;;6.72;75.16;98374.88;5095174;28;19995;-78
2021/12/17 13:57:39;;;;;;;;;;;;;;;6.64;75.37;98374.78;5096905;28;19960;-76
2021/12/17 14:00:16;;;;;;;;;;;;;;;6.59;74.33;98372.56;5096644;28;20323;-76
2021/12/17 14:02:44;;;;;;;;;;;;;;;6.54;76.24;98360.97;5096487;28;19981;-76
2021/12/17 14:05:10;;;;;;;;;;;;;;;6.50;75.96;98357.81;5096785;28;19955;-76
2021/12/17 14:07:37;;;;;;;;;;;;;;;6.48;76.06;98362.34;5096534;28;19966;-76
2021/12/17 14:10:06;;;;;;;;;;;;;;;6.46;76.93;98356.47;5096226;28;20447;-76
2021/12/17 14:12:36;;;;;;;;;;;;;;;6.45;77.22;98352.22;5096288;28;19959;-76
2021/12/17 14:15:07;;;;;;;;;;;;;;;6.40;76.57;98355.25;5096163;28;19964;-76
2021/12/17 14:17:38;;;;;;;;;;;;;;;6.38;76.49;98358.97;5095354;28;20078;-76
2021/12/17 14:20:09;;;;;;;;;;;;;;;6.36;77.25;98364.31;5096657;28;20333;-76
2021/12/17 14:22:37;;;;;;;;;;;;;;;6.33;76.98;98350.75;5084346;28;20300;-76
2021/12/17 14:25:21;;;;;;;;;;;;;;;6.32;77.40;98356.94;5096030;28;19965;-76
2021/12/17 14:27:50;;;;;;;;;;;;;;;6.34;77.50;98360.22;5077667;28;20426;-76
2021/12/17 14:30:21;;;;;;;;;;;;;;;6.28;77.58;98352.00;5095920;28;19961;-76
2021/12/17 14:32:47;;;;;;;;;;;;;;;6.23;77.57;98372.44;5095186;28;19961;-76
2021/12/17 14:35:14;;;;;;;;;;;;;;;6.20;78.17;98374.53;5096057;28;19969;-76
2021/12/17 14:37:55;;;;;;;;;;;;;;;6.13;78.24;98368.25;5095935;28;19965;-76
2021/12/17 14:40:25;;;;;;;;;;;;;;;6.09;78.37;98373.75;5095796;28;20407;-76
2021/12/17 14:42:54;;;;;;;;;;;;;;;6.06;78.53;98374.00;5095962;28;19958;-76
2021/12/17 14:45:23;;;;;;;;;;;;;;;6.06;78.65;98370.59;5096075;28;19962;-76
2021/12/17 14:47:57;;;;;;;;;;;;;;;6.02;78.46;98364.84;5096062;28;20336;-76
2021/12/17 15:01:38;;;;;;;;;;;;;;;5.74;79.61;98382.16;5094731;28;19970;-76
2021/12/17 15:04:04;;;;;;;;;;;;;;;5.72;79.44;98385.84;5095781;28;19967;-76
2021/12/17 15:06:30;;;;;;;;;;;;;;;5.64;79.76;98386.53;5095288;28;20049;-76
2021/12/17 15:08:59;;;;;;;;;;;;;;;5.59;80.08;98391.34;5095357;28;19994;-76
2021/12/17 15:11:30;;;;;;;;;;;;;;;5.52;80.35;98387.66;5095136;28;19967;-77
2021/12/17 15:13:56;;;;;;;;;;;;;;;5.47;80.52;98388.06;5078529;28;19963;-76
2021/12/17 15:16:22;;;;;;;;;;;;;;;5.41;80.77;98396.41;5094934;28;19994;-76
2021/12/17 15:18:48;;;;;;;;;;;;;;;5.35;80.97;98394.34;5094251;28;19954;-76
2021/12/17 15:21:14;;;;;;;;;;;;;;;5.28;81.16;98397.50;5094995;28;20038;-76
2021/12/17 15:23:40;;;;;;;;;;;;;;;5.23;81.87;98401.50;5094729;28;19968;-77
2021/12/17 15:26:06;;;;;;;;;;;;;;;5.18;81.67;98393.25;5095109;28;20007;-75
2021/12/17 15:28:32;;;;;;;;;;;;;;;5.16;82.16;98392.56;5094729;28;19954;-77
2021/12/17 15:31:02;;;;;;;;;;;;;;;5.13;82.76;98398.06;5094914;28;19966;-77
2021/12/17 15:33:28;;;;;;;;;;;;;;;5.11;82.90;98400.78;5085362;28;19974;-76
2021/12/17 15:35:55;;;;;;;;;;;;;;;5.07;83.10;98404.59;5094907;28;20334;-75
2021/12/17 15:38:23;;;;;;;;;;;;;;;5.04;83.36;98404.84;5093957;28;19959;-77
2021/12/17 15:40:49;;;;;;;;;;;;;;;5.00;83.79;98406.91;5086166;28;19980;-75
2021/12/17 15:43:16;;;;;;;;;;;;;;;5.00;83.89;98406.09;5094464;28;20293;-76
2021/12/17 15:45:43;;;;;;;;;;;;;;;4.99;83.59;98407.06;5094579;28;19960;-76
2021/12/17 15:48:10;;;;;;;;;;;;;;;4.96;83.80;98396.94;5094776;28;19958;-76
2021/12/17 15:50:36;;;;;;;;;;;;;;;4.94;83.42;98396.25;5076415;28;20369;-75
2021/12/17 15:53:02;;;;;;;;;;;;;;;4.91;83.69;98396.50;5094266;28;19954;-78
2021/12/17 15:55:29;;;;;;;;;;;;;;;4.89;83.60;98401.81;5094278;28;20334;-76
2021/12/17 15:57:57;;;;;;;;;;;;;;;4.86;83.63;98405.50;5094533;28;19968;-75
2021/12/17 16:00:28;;;;;;;;;;;;;;;4.86;83.87;98407.28;5094385;28;19960;-76
2021/12/17 16:02:54;;;;;;;;;;;;;;;4.83;83.76;98403.19;5094419;28;19964;-76
2021/12/17 16:05:22;;;;;;;;;;;;;;;4.83;83.99;98399.75;5094030;28;19961;-76
2021/12/17 16:07:51;;;;;;;;;;;;;;;4.84;83.88;98401.41;5094364;28;20334;-76